ON, Ontario

5:31 AM MDT on 四月 24, 2017 (GMT -0600)
Calgary International | | Change Station

高度 3556 ft 51.12 °N, 114.02 °W | Updated 31 minutes ago

Light Drizzle
霧雨(弱)
34 °F
体感気温 29 °F
6
風 変数 風 から

今日
高い -- | 低 -- °F
--% 降水確率
昨日
高い -- | 低 -- °F
Precip. -- インチ
気圧 29.75 インチ
視程 1.2 マイル
だいたい曇 200 ft
曇 700 ft
体感気温(寒さ) 29 °F
露点温度 32 °F
湿度 93%
降水 0.00 インチ
積雪深 利用不可。
6:21 AM 8:47 PM
二十六夜, 6% visible
METAR CYYC 241100Z 09005KT 1 1/4SM R35R/5000VP6000FT/D -DZ BR BKN002 OVC007 01/M00 A2966 RMK ST6SC2 SLP073
気圧 29.75 インチ
視程 1.2 マイル
だいたい曇 200 ft
曇 700 ft
体感気温(寒さ) 29 °F
露点温度 32 °F
湿度 93%
降水 0.00 インチ
積雪深 利用不可。
6:21 AM 8:47 PM
二十六夜, 6% visible
METAR CYYC 241100Z 09005KT 1 1/4SM R35R/5000VP6000FT/D -DZ BR BKN002 OVC007 01/M00 A2966 RMK ST6SC2 SLP073

Get Severe Weather Alerts

Thanks for signing up!

Be on the lookout for a verification email in your inbox.

You'll start receiving the daily forecast at 8 AM.

×

10-Day Weather Forecast

Almanac

天文

Apr. 24, 2017 入り
実時間
常用薄明
航海薄明
天文薄明
可視光の長さ
可照時間
Tomorrow will be .
, % of the Moon is Illuminated

今日の極値

Country Highs Country Lows

Community

WunderBlog® & News

Nearby

空気品質

  空気品質 大気質指数 汚染物質
Not available.

積雪深

Station Depth 高度

地震活動

Distance Mag. Time & Date
Minimum magnitude displayed is 2.5.

沿岸の水温

地名 気温

Stations

最寄りの気象観測所

観測所位置 温度 体感気温(寒さ) 露点温度 湿度 Precip. 高度 更新日時 タイプする
                   

Watches & Warnings

There are currently no watches in effect.